createdAt,value
2022-08-22T00:08:53.441Z,7.68
2022-08-22T00:19:22.492Z,7.97
2022-08-22T00:29:51.275Z,8.30
2022-08-22T00:40:41.277Z,8.02
2022-08-22T00:51:24.594Z,8.02
2022-08-22T01:01:58.458Z,8.38
2022-08-22T01:12:38.581Z,8.07
2022-08-22T01:23:25.527Z,8.93
2022-08-22T01:34:51.379Z,8.88
2022-08-22T01:45:41.568Z,8.35
2022-08-22T01:56:10.403Z,8.30
2022-08-22T02:06:39.627Z,8.05
2022-08-22T02:17:14.982Z,7.47
2022-08-22T02:27:45.358Z,7.67
2022-08-22T02:38:20.896Z,7.68
2022-08-22T02:48:49.232Z,7.53
2022-08-22T02:59:24.834Z,8.15
2022-08-22T03:09:52.791Z,7.50
2022-08-22T03:20:21.287Z,6.80
2022-08-22T03:30:45.268Z,7.18
2022-08-22T03:41:26.670Z,7.95
2022-08-22T03:52:06.314Z,7.03
2022-08-22T04:03:19.163Z,7.40
2022-08-22T04:14:16.337Z,7.22
2022-08-22T04:24:53.665Z,7.38
2022-08-22T04:35:27.345Z,6.88
2022-08-22T04:45:53.419Z,7.68
2022-08-22T04:56:26.184Z,7.20
2022-08-22T05:06:51.594Z,7.55
2022-08-22T05:17:19.784Z,7.22
2022-08-22T05:27:45.782Z,7.57
2022-08-22T05:48:42.225Z,6.97
2022-08-22T05:59:21.857Z,7.10
2022-08-22T06:10:17.622Z,6.75
2022-08-22T06:20:45.165Z,5.50
2022-08-22T06:31:07.722Z,5.90
2022-08-22T06:41:36.774Z,5.22
2022-08-22T06:52:02.454Z,5.13
2022-08-22T07:02:34.397Z,5.38
2022-08-22T07:13:08.325Z,4.57
2022-08-22T07:34:39.582Z,4.57
2022-08-22T07:45:11.868Z,3.65
2022-08-22T07:56:05.543Z,3.35
2022-08-22T08:17:54.592Z,2.65
2022-08-22T08:29:05.202Z,2.38
2022-08-22T08:39:40.402Z,2.10
2022-08-22T08:50:52.378Z,2.10
2022-08-22T09:01:50.706Z,1.70
2022-08-22T09:12:29.856Z,1.92
2022-08-22T09:23:36.806Z,2.10
2022-08-22T09:34:08.441Z,2.30
2022-08-22T09:44:39.995Z,2.45
2022-08-22T09:55:13.415Z,2.28
2022-08-22T10:05:46.438Z,2.00
2022-08-22T10:16:22.234Z,2.22
2022-08-22T10:26:50.806Z,2.20
2022-08-22T10:37:23.909Z,2.10
2022-08-22T10:48:27.352Z,2.15
2022-08-22T10:58:56.209Z,2.00
2022-08-22T11:09:43.844Z,2.15
2022-08-22T11:20:21.450Z,2.00
2022-08-22T11:30:52.306Z,2.10
2022-08-22T11:41:23.972Z,1.92
2022-08-22T11:52:04.408Z,2.17
2022-08-22T12:02:43.321Z,2.28
2022-08-22T12:24:19.274Z,2.00
2022-08-22T12:34:56.171Z,2.08
2022-08-22T12:45:40.618Z,1.80
2022-08-22T12:56:13.774Z,1.83
2022-08-22T13:07:08.324Z,2.10
2022-08-22T13:18:29.950Z,1.83
2022-08-22T13:29:24.777Z,2.13
2022-08-22T13:39:45.022Z,2.10
2022-08-22T13:50:14.737Z,2.10
2022-08-22T14:01:33.078Z,1.90
2022-08-22T14:12:12.151Z,2.00
2022-08-22T14:22:36.742Z,2.47
2022-08-22T14:33:22.601Z,2.22
2022-08-22T14:44:08.575Z,2.45
2022-08-22T14:54:34.705Z,2.30
2022-08-22T15:04:57.730Z,2.15
2022-08-22T15:15:32.684Z,2.47
2022-08-22T15:26:18.008Z,2.23
2022-08-22T15:37:09.875Z,2.40
2022-08-22T15:47:37.579Z,2.30
2022-08-22T15:58:04.603Z,1.98
2022-08-22T16:08:33.282Z,4.00
2022-08-22T16:19:19.626Z,2.00
2022-08-22T16:29:43.186Z,2.55
2022-08-22T16:40:16.622Z,2.10
2022-08-22T16:50:40.904Z,2.00
2022-08-22T17:01:35.208Z,1.95
2022-08-22T17:12:10.798Z,2.13
2022-08-22T17:23:04.297Z,2.50
2022-08-22T17:34:11.380Z,2.25
2022-08-22T17:44:48.998Z,2.35
2022-08-22T17:55:18.002Z,2.00
2022-08-22T18:06:41.267Z,2.20
2022-08-22T18:17:16.698Z,2.50
2022-08-22T18:27:52.546Z,2.10
2022-08-22T18:38:46.460Z,2.45
2022-08-22T18:49:45.721Z,2.45
2022-08-22T19:00:14.735Z,2.88
2022-08-22T19:10:49.684Z,2.70
2022-08-22T19:21:46.598Z,2.90
2022-08-22T19:32:14.486Z,2.80
2022-08-22T19:42:46.814Z,2.83
2022-08-22T19:53:22.579Z,2.67
2022-08-22T20:03:53.710Z,2.92
2022-08-22T20:14:30.710Z,2.50
2022-08-22T20:24:57.789Z,2.70
2022-08-22T20:35:22.436Z,2.50
2022-08-22T20:46:04.055Z,3.22
2022-08-22T20:56:38.212Z,3.47
2022-08-22T21:07:12.302Z,2.87
2022-08-22T21:17:34.409Z,3.00
2022-08-22T21:28:05.066Z,3.65
2022-08-22T21:38:30.016Z,3.55
2022-08-22T21:49:07.214Z,3.05
2022-08-22T21:59:52.228Z,3.30
2022-08-22T22:10:22.804Z,3.40
2022-08-22T22:20:45.483Z,3.70
2022-08-22T22:31:09.396Z,3.10
2022-08-22T22:41:31.964Z,4.13
2022-08-22T22:52:07.712Z,3.40
2022-08-22T23:02:43.107Z,4.22
2022-08-22T23:13:19.692Z,4.32
2022-08-22T23:23:54.907Z,4.53
2022-08-22T23:34:37.872Z,3.80
2022-08-22T23:45:15.839Z,4.40
2022-08-22T23:55:38.812Z,3.90
